createdAt,value
2018-02-18T00:01:02.533Z,15.80
2018-02-18T00:03:30.756Z,7.80
2018-02-18T00:05:58.218Z,10.40
2018-02-18T00:08:25.674Z,10.47
2018-02-18T00:10:53.155Z,8.17
2018-02-18T00:13:20.612Z,10.47
2018-02-18T00:15:48.118Z,7.57
2018-02-18T00:18:16.406Z,14.53
2018-02-18T00:20:43.944Z,12.97
2018-02-18T00:23:12.177Z,9.50
2018-02-18T00:25:39.643Z,6.63
2018-02-18T00:28:07.113Z,15.93
2018-02-18T00:30:34.583Z,11.23
2018-02-18T00:33:02.810Z,15.63
2018-02-18T00:35:30.287Z,9.20
2018-02-18T00:37:57.751Z,8.63
2018-02-18T00:40:25.233Z,12.93
2018-02-18T00:42:53.468Z,12.93
2018-02-18T00:45:20.936Z,14.97
2018-02-18T00:47:48.428Z,9.23
2018-02-18T00:50:15.906Z,10.07
2018-02-18T00:52:43.386Z,11.07
2018-02-18T00:55:10.856Z,11.60
2018-02-18T00:57:38.315Z,11.43
2018-02-18T01:00:05.802Z,10.70
2018-02-18T01:02:33.287Z,10.30
2018-02-18T01:05:01.531Z,7.53
2018-02-18T01:07:29.009Z,10.90
2018-02-18T01:09:56.475Z,13.63
2018-02-18T01:12:24.703Z,11.20
2018-02-18T01:14:52.167Z,9.87
2018-02-18T01:17:19.626Z,9.73
2018-02-18T01:19:47.118Z,12.43
2018-02-18T01:22:14.570Z,8.40
2018-02-18T01:24:42.820Z,13.00
2018-02-18T01:27:10.279Z,11.97
2018-02-18T01:29:37.759Z,19.07
2018-02-18T01:32:05.217Z,8.50
2018-02-18T01:34:32.690Z,11.53
2018-02-18T01:37:00.924Z,7.83
2018-02-18T01:39:28.416Z,8.40
2018-02-18T01:41:55.922Z,14.77
2018-02-18T01:44:23.374Z,12.17
2018-02-18T01:46:50.839Z,7.93
2018-02-18T01:49:18.309Z,11.40
2018-02-18T01:51:45.782Z,13.50
2018-02-18T01:54:13.259Z,13.80
2018-02-18T01:56:40.731Z,15.80
2018-02-18T01:59:08.955Z,8.73
2018-02-18T02:01:36.432Z,13.17
2018-02-18T02:04:03.890Z,14.50
2018-02-18T02:06:31.362Z,11.73
2018-02-18T02:08:58.854Z,14.50
2018-02-18T02:11:26.335Z,14.13
2018-02-18T02:13:53.798Z,12.33
2018-02-18T02:16:21.277Z,8.77
2018-02-18T02:18:48.734Z,11.60
2018-02-18T02:21:16.214Z,10.83
2018-02-18T02:23:43.688Z,11.10
2018-02-18T02:26:11.922Z,12.03
2018-02-18T02:28:39.387Z,14.17
2018-02-18T02:31:06.854Z,11.70
2018-02-18T02:33:34.323Z,13.77
2018-02-18T02:36:01.803Z,11.63
2018-02-18T02:38:30.037Z,9.20
2018-02-18T02:40:57.506Z,9.70
2018-02-18T02:43:24.971Z,10.73
2018-02-18T02:45:52.443Z,9.37
2018-02-18T02:48:19.903Z,14.83
2018-02-18T02:50:48.147Z,6.95
2018-02-18T02:53:15.615Z,10.30
2018-02-18T02:55:43.096Z,15.43
2018-02-18T02:58:11.334Z,5.60
2018-02-18T03:00:38.803Z,5.60
2018-02-18T03:03:06.262Z,9.87
2018-02-18T03:05:33.752Z,6.10
2018-02-18T03:08:02.024Z,8.17
2018-02-18T03:10:29.471Z,12.10
2018-02-18T03:12:57.695Z,16.63
2018-02-18T03:15:25.162Z,9.73
2018-02-18T03:17:52.623Z,9.67
2018-02-18T03:20:20.097Z,8.70
2018-02-18T03:22:47.573Z,6.50
2018-02-18T03:25:15.047Z,10.43
2018-02-18T03:27:43.274Z,9.60
2018-02-18T03:30:10.744Z,12.30
2018-02-18T03:32:38.211Z,6.63
2018-02-18T03:35:05.711Z,7.50
2018-02-18T03:37:33.172Z,14.00
2018-02-18T03:40:00.631Z,8.67
2018-02-18T03:42:28.112Z,10.17
2018-02-18T03:44:55.595Z,12.00
2018-02-18T03:47:23.066Z,12.20
2018-02-18T03:49:50.545Z,9.30
2018-02-18T03:52:19.560Z,10.50
2018-02-18T03:54:47.023Z,10.30
2018-02-18T03:57:14.500Z,6.50
2018-02-18T03:59:41.976Z,10.57
2018-02-18T04:02:09.457Z,5.43
2018-02-18T04:04:36.924Z,8.57
2018-02-18T04:07:05.172Z,7.10
2018-02-18T04:09:32.643Z,6.90
2018-02-18T04:12:00.120Z,7.33
2018-02-18T04:14:28.364Z,8.93
2018-02-18T04:16:55.840Z,5.93
2018-02-18T04:19:23.302Z,6.43
2018-02-18T04:21:50.777Z,6.93
2018-02-18T04:24:19.017Z,6.55
2018-02-18T04:26:46.501Z,5.47
2018-02-18T04:29:14.726Z,6.57
2018-02-18T04:31:42.213Z,8.70
2018-02-18T04:34:09.685Z,7.30
2018-02-18T04:36:38.315Z,8.83
2018-02-18T04:39:05.804Z,7.03
2018-02-18T04:41:33.290Z,10.45
2018-02-18T04:44:01.533Z,7.12
2018-02-18T04:46:29.007Z,6.37
2018-02-18T04:48:56.500Z,8.27
2018-02-18T04:51:23.973Z,6.22
2018-02-18T04:53:51.442Z,10.13
2018-02-18T04:56:18.932Z,5.63
2018-02-18T04:58:47.206Z,9.48
2018-02-18T05:01:14.697Z,7.90
2018-02-18T05:03:42.942Z,9.83
2018-02-18T05:06:10.423Z,7.80
2018-02-18T05:08:38.659Z,6.85
2018-02-18T05:11:06.151Z,7.20
2018-02-18T05:13:33.632Z,3.60
2018-02-18T05:16:01.116Z,8.07
2018-02-18T05:18:28.596Z,7.62
2018-02-18T05:20:56.840Z,11.73
2018-02-18T05:23:24.310Z,5.67
2018-02-18T05:25:51.800Z,4.85
2018-02-18T05:28:19.279Z,5.62
2018-02-18T05:30:46.768Z,5.35
2018-02-18T05:33:14.246Z,4.43
2018-02-18T05:35:41.718Z,6.35
2018-02-18T05:38:09.196Z,5.90
2018-02-18T05:40:36.676Z,6.78
2018-02-18T05:43:04.932Z,5.30
2018-02-18T05:45:32.403Z,9.30
2018-02-18T05:48:00.656Z,4.60
2018-02-18T05:50:28.131Z,5.32
2018-02-18T05:52:55.618Z,11.07
2018-02-18T05:55:23.860Z,8.05
2018-02-18T05:57:51.348Z,4.93
2018-02-18T06:00:19.612Z,4.57
2018-02-18T06:02:48.249Z,7.03
2018-02-18T06:05:15.711Z,9.48
2018-02-18T06:07:43.205Z,10.18
2018-02-18T06:10:10.662Z,7.40
2018-02-18T06:12:38.138Z,8.03
2018-02-18T06:15:06.384Z,4.87
2018-02-18T06:17:33.870Z,5.65
2018-02-18T06:20:03.030Z,3.95
2018-02-18T06:22:31.284Z,3.20
2018-02-18T06:24:58.755Z,5.47
2018-02-18T06:27:26.242Z,8.27
2018-02-18T06:29:53.723Z,3.50
2018-02-18T06:32:22.251Z,3.90
2018-02-18T06:34:49.715Z,6.25
2018-02-18T06:37:17.196Z,5.25
2018-02-18T06:39:44.666Z,5.60
2018-02-18T06:42:12.913Z,6.07
2018-02-18T06:44:40.391Z,7.40
2018-02-18T06:47:07.872Z,7.07
2018-02-18T06:49:36.107Z,5.65
2018-02-18T06:52:03.609Z,5.20
2018-02-18T06:54:31.843Z,8.00
2018-02-18T06:56:59.323Z,12.05
2018-02-18T06:59:27.562Z,5.93
2018-02-18T07:01:55.049Z,5.62
2018-02-18T07:04:22.533Z,4.90
2018-02-18T07:06:50.779Z,11.10
2018-02-18T07:09:18.255Z,4.80
2018-02-18T07:11:46.510Z,4.43
2018-02-18T07:14:13.996Z,3.67
2018-02-18T07:16:42.239Z,3.45
2018-02-18T07:19:09.730Z,5.32
2018-02-18T07:21:37.988Z,8.65
2018-02-18T07:24:05.456Z,3.00
2018-02-18T07:26:33.715Z,7.53
2018-02-18T07:29:01.197Z,5.40
2018-02-18T07:31:29.437Z,6.05
2018-02-18T07:36:31.527Z,10.97
2018-02-18T07:38:59.018Z,4.70
2018-02-18T07:41:27.263Z,5.70
2018-02-18T07:43:54.748Z,10.23
2018-02-18T07:46:22.990Z,8.82
2018-02-18T07:48:50.471Z,6.90
2018-02-18T07:51:18.722Z,10.10
2018-02-18T07:53:46.208Z,8.87
2018-02-18T07:56:14.439Z,7.00
2018-02-18T07:58:41.929Z,7.57
2018-02-18T08:01:09.397Z,6.70
2018-02-18T08:03:36.892Z,6.28
2018-02-18T08:06:04.364Z,8.88
2018-02-18T08:08:31.843Z,8.40
2018-02-18T08:10:59.334Z,5.63
2018-02-18T08:13:26.811Z,8.10
2018-02-18T08:15:55.056Z,10.80
2018-02-18T08:18:23.143Z,9.03
2018-02-18T08:20:51.398Z,10.20
2018-02-18T08:23:18.876Z,6.00
2018-02-18T08:25:47.123Z,10.40
2018-02-18T08:28:14.607Z,7.10
2018-02-18T08:30:42.072Z,5.37
2018-02-18T08:33:10.319Z,5.60
2018-02-18T08:35:37.774Z,5.70
2018-02-18T08:38:05.260Z,4.37
2018-02-18T08:40:32.728Z,11.07
2018-02-18T08:43:00.978Z,3.73
2018-02-18T08:45:28.454Z,7.07
2018-02-18T08:47:55.919Z,8.10
2018-02-18T08:50:25.032Z,6.43
2018-02-18T08:52:52.508Z,4.90
2018-02-18T08:55:19.973Z,9.17
2018-02-18T08:57:47.448Z,6.90
2018-02-18T09:00:14.912Z,6.73
2018-02-18T09:02:42.385Z,6.57
2018-02-18T09:05:09.847Z,5.57
2018-02-18T09:07:37.366Z,8.17
2018-02-18T09:10:04.904Z,10.83
2018-02-18T09:12:32.349Z,8.80
2018-02-18T09:15:04.393Z,7.37
2018-02-18T09:17:31.863Z,5.17
2018-02-18T09:20:00.098Z,12.93
2018-02-18T09:22:27.572Z,9.50
2018-02-18T09:24:55.039Z,6.10
2018-02-18T09:27:22.516Z,5.93
2018-02-18T09:29:50.751Z,8.60
2018-02-18T09:32:18.218Z,4.73
2018-02-18T09:34:45.687Z,6.57
2018-02-18T09:37:13.158Z,5.33
2018-02-18T09:39:41.407Z,4.40
2018-02-18T09:42:08.884Z,6.23
2018-02-18T09:44:36.363Z,5.87
2018-02-18T09:47:04.584Z,6.10
2018-02-18T09:49:32.054Z,11.67
2018-02-18T09:51:59.521Z,3.10
2018-02-18T09:54:27.028Z,4.90
2018-02-18T09:56:54.486Z,6.17
2018-02-18T09:59:21.989Z,14.17
2018-02-18T10:01:49.449Z,6.63
2018-02-18T10:04:16.946Z,9.80
2018-02-18T10:06:45.171Z,4.40
2018-02-18T10:09:12.645Z,6.03
2018-02-18T10:11:40.108Z,4.87
2018-02-18T10:14:07.584Z,4.23
2018-02-18T10:16:35.816Z,5.10
2018-02-18T10:19:03.296Z,3.37
2018-02-18T10:21:30.757Z,9.47
2018-02-18T10:23:58.232Z,4.90
2018-02-18T10:26:25.697Z,7.90
2018-02-18T10:28:53.936Z,6.10
2018-02-18T10:31:21.461Z,4.67
2018-02-18T10:33:48.936Z,5.37
2018-02-18T10:36:16.409Z,4.70
2018-02-18T10:38:44.641Z,9.40
2018-02-18T10:41:12.858Z,3.50
2018-02-18T10:43:40.339Z,4.47
2018-02-18T10:46:07.804Z,4.47
2018-02-18T10:48:35.283Z,5.80
2018-02-18T10:51:03.524Z,10.10
2018-02-18T10:53:30.987Z,6.27
2018-02-18T10:55:58.473Z,6.27
2018-02-18T10:58:26.751Z,8.23
2018-02-18T11:00:54.995Z,5.57
2018-02-18T11:03:22.472Z,6.00
2018-02-18T11:05:49.948Z,8.33
2018-02-18T11:08:18.212Z,5.00
2018-02-18T11:10:46.457Z,8.20
2018-02-18T11:13:13.946Z,10.40
2018-02-18T11:15:42.171Z,11.70
2018-02-18T11:18:09.657Z,4.67
2018-02-18T11:20:37.151Z,9.50
2018-02-18T11:23:05.402Z,5.83
2018-02-18T11:25:32.870Z,11.17
2018-02-18T11:28:00.337Z,7.47
2018-02-18T11:30:28.571Z,9.40
2018-02-18T11:32:56.040Z,8.27
2018-02-18T11:35:23.524Z,10.37
2018-02-18T11:37:51.763Z,5.70
2018-02-18T11:40:19.251Z,8.47
2018-02-18T11:42:46.709Z,6.90
2018-02-18T11:45:14.166Z,8.27
2018-02-18T11:47:41.626Z,7.07
2018-02-18T11:50:09.095Z,7.47
2018-02-18T11:52:37.340Z,10.17
2018-02-18T11:55:04.812Z,9.90
2018-02-18T11:57:32.280Z,7.60
2018-02-18T12:00:00.543Z,8.77
2018-02-18T12:02:28.034Z,6.27
2018-02-18T12:04:56.279Z,8.43
2018-02-18T12:07:23.742Z,11.40
2018-02-18T12:09:52.012Z,8.33
2018-02-18T12:12:19.479Z,11.90
2018-02-18T12:14:46.949Z,9.73
2018-02-18T12:17:15.172Z,7.10
2018-02-18T12:19:42.643Z,7.60
2018-02-18T12:22:10.103Z,9.20
2018-02-18T12:24:38.105Z,7.53
2018-02-18T12:27:05.589Z,8.17
2018-02-18T12:29:33.812Z,5.23
2018-02-18T12:32:01.317Z,6.40
2018-02-18T12:34:29.584Z,5.90
2018-02-18T12:36:57.831Z,11.50
2018-02-18T12:39:26.128Z,6.73
2018-02-18T12:41:53.628Z,3.80
2018-02-18T12:44:21.117Z,7.57
2018-02-18T12:46:48.612Z,10.53
2018-02-18T12:49:16.088Z,6.57
2018-02-18T12:51:44.312Z,7.57
2018-02-18T12:54:11.785Z,6.87
2018-02-18T12:56:40.028Z,5.00
2018-02-18T12:59:07.508Z,11.33
2018-02-18T13:01:34.988Z,5.23
2018-02-18T13:04:02.474Z,5.90
2018-02-18T13:06:30.697Z,6.73
2018-02-18T13:08:58.168Z,9.10
2018-02-18T13:11:25.631Z,6.97
2018-02-18T13:13:53.110Z,4.43
2018-02-18T13:16:20.566Z,7.47
2018-02-18T13:18:49.516Z,7.00
2018-02-18T13:21:16.983Z,4.57
2018-02-18T13:23:45.219Z,6.03
2018-02-18T13:26:12.806Z,7.13
2018-02-18T13:28:41.126Z,6.43
2018-02-18T13:31:08.597Z,5.53
2018-02-18T13:33:36.835Z,6.93
2018-02-18T13:36:04.329Z,7.83
2018-02-18T13:38:32.913Z,6.07
2018-02-18T13:41:01.147Z,7.00
2018-02-18T13:43:28.637Z,8.30
2018-02-18T13:45:56.115Z,10.07
2018-02-18T13:48:24.352Z,7.60
2018-02-18T13:50:51.857Z,11.20
2018-02-18T13:53:19.318Z,7.53
2018-02-18T13:58:40.708Z,4.90
2018-02-18T14:01:08.170Z,5.40
2018-02-18T14:03:35.642Z,6.63
2018-02-18T14:06:03.883Z,9.53
2018-02-18T14:08:31.766Z,11.57
2018-02-18T14:10:59.234Z,9.20
2018-02-18T14:13:26.704Z,9.37
2018-02-18T14:15:54.953Z,12.43
2018-02-18T14:18:22.411Z,10.60
2018-02-18T14:20:49.929Z,8.80
2018-02-18T14:23:17.387Z,11.70
2018-02-18T14:25:44.870Z,9.60
2018-02-18T14:28:12.358Z,10.50
2018-02-18T14:30:39.830Z,8.47
2018-02-18T14:33:08.098Z,9.20
2018-02-18T14:35:35.600Z,14.23
2018-02-18T14:38:03.098Z,10.20
2018-02-18T14:40:30.584Z,8.77
2018-02-18T14:46:14.812Z,9.70
2018-02-18T14:48:54.266Z,7.80
2018-02-18T14:51:33.763Z,11.70
2018-02-18T14:54:13.047Z,11.73
2018-02-18T14:56:52.517Z,12.40
2018-02-18T14:59:20.748Z,13.23
2018-02-18T15:01:48.240Z,13.47
2018-02-18T15:04:15.849Z,13.33
2018-02-18T15:06:43.334Z,17.13
2018-02-18T15:09:10.808Z,13.73
2018-02-18T15:11:38.296Z,11.40
2018-02-18T15:14:06.527Z,14.40
2018-02-18T15:16:34.035Z,13.20
2018-02-18T15:19:02.255Z,10.50
2018-02-18T15:21:29.726Z,10.47
2018-02-18T15:23:57.207Z,14.33
2018-02-18T15:26:24.683Z,13.23
2018-02-18T15:28:52.916Z,11.40
2018-02-18T15:31:20.414Z,11.10
2018-02-18T15:33:48.648Z,11.77
2018-02-18T15:36:16.136Z,12.37
2018-02-18T15:38:43.596Z,9.27
2018-02-18T15:41:11.868Z,11.03
2018-02-18T15:43:39.397Z,10.13
2018-02-18T15:46:06.875Z,10.37
2018-02-18T15:48:34.349Z,9.83
2018-02-18T15:51:01.812Z,9.60
2018-02-18T15:53:30.042Z,11.67
2018-02-18T15:55:57.655Z,12.70
2018-02-18T15:58:25.894Z,15.73
2018-02-18T16:00:53.355Z,10.97
2018-02-18T16:03:20.861Z,14.47
2018-02-18T16:05:48.375Z,14.33
2018-02-18T16:08:15.814Z,10.93
2018-02-18T16:10:43.287Z,11.83
2018-02-18T16:13:10.759Z,13.63
2018-02-18T16:15:38.252Z,15.03
2018-02-18T16:18:05.737Z,12.00
2018-02-18T16:20:33.234Z,13.20
2018-02-18T16:23:00.722Z,12.47
2018-02-18T16:25:28.964Z,13.10
2018-02-18T16:27:56.451Z,17.77
2018-02-18T16:30:24.686Z,11.60
2018-02-18T16:32:52.158Z,10.63
2018-02-18T16:35:19.642Z,10.73
2018-02-18T16:37:47.878Z,16.43
2018-02-18T16:40:15.347Z,10.10
2018-02-18T16:42:42.818Z,12.17
2018-02-18T16:45:10.286Z,11.57
2018-02-18T16:47:38.536Z,14.23
2018-02-18T16:50:06.763Z,12.90
2018-02-18T16:52:34.243Z,12.10
2018-02-18T16:55:01.716Z,10.73
2018-02-18T16:57:29.244Z,15.40
2018-02-18T16:59:56.666Z,27.63
2018-02-18T17:02:24.144Z,15.80
2018-02-18T17:04:52.381Z,14.87
2018-02-18T17:07:19.871Z,12.70
2018-02-18T17:09:48.116Z,12.73
2018-02-18T17:12:15.586Z,12.23
2018-02-18T17:14:43.834Z,14.03
2018-02-18T17:17:13.323Z,17.70
2018-02-18T17:19:40.788Z,14.37
2018-02-18T17:22:08.288Z,12.17
2018-02-18T17:24:35.747Z,13.03
2018-02-18T17:27:04.006Z,12.13
2018-02-18T17:29:31.485Z,11.40
2018-02-18T17:31:58.968Z,17.47
2018-02-18T17:34:26.440Z,12.53
2018-02-18T17:36:53.925Z,17.57
2018-02-18T17:39:21.496Z,13.27
2018-02-18T17:41:48.995Z,12.40
2018-02-18T17:44:17.249Z,11.33
2018-02-18T17:46:44.730Z,14.80
2018-02-18T17:49:12.982Z,12.87
2018-02-18T17:51:40.484Z,15.20
2018-02-18T17:54:07.958Z,14.90
2018-02-18T17:56:35.476Z,18.93
2018-02-18T17:59:03.724Z,13.77
2018-02-18T18:01:31.196Z,12.43
2018-02-18T18:03:58.685Z,16.23
2018-02-18T18:06:26.202Z,14.10
2018-02-18T18:08:53.693Z,15.53
2018-02-18T18:11:21.931Z,11.10
2018-02-18T18:13:49.423Z,15.23
2018-02-18T18:16:17.660Z,13.33
2018-02-18T18:18:45.164Z,20.53
2018-02-18T18:21:13.398Z,14.90
2018-02-18T18:23:40.881Z,13.30
2018-02-18T18:26:08.357Z,17.23
2018-02-18T18:28:36.607Z,12.10
2018-02-18T18:31:04.096Z,19.40
2018-02-18T18:33:31.570Z,16.07
2018-02-18T18:35:59.045Z,17.37
2018-02-18T18:38:26.596Z,15.30
2018-02-18T18:40:54.084Z,18.80
2018-02-18T18:43:21.563Z,21.13
2018-02-18T18:45:49.036Z,12.17
2018-02-18T18:48:17.274Z,17.60
2018-02-18T18:50:44.796Z,15.77
2018-02-18T18:53:13.156Z,16.50
2018-02-18T18:55:41.394Z,14.60
2018-02-18T18:58:08.859Z,14.57
2018-02-18T19:00:36.338Z,13.00
2018-02-18T19:03:03.865Z,15.20
2018-02-18T19:05:31.349Z,13.83
2018-02-18T19:07:58.901Z,17.73
2018-02-18T19:10:26.376Z,15.13
2018-02-18T19:12:54.622Z,18.67
2018-02-18T19:15:22.124Z,15.27
2018-02-18T19:17:50.368Z,19.33
2018-02-18T19:20:17.834Z,16.83
2018-02-18T19:22:45.347Z,17.27
2018-02-18T19:25:12.814Z,17.63
2018-02-18T19:27:40.295Z,16.93
2018-02-18T19:30:07.762Z,18.70
2018-02-18T19:32:35.261Z,14.40
2018-02-18T19:35:02.745Z,15.03
2018-02-18T19:37:30.215Z,14.33
2018-02-18T19:39:57.678Z,16.57
2018-02-18T19:42:25.165Z,15.37
2018-02-18T19:44:52.645Z,14.60
2018-02-18T19:47:20.913Z,15.67
2018-02-18T19:49:49.152Z,16.70
2018-02-18T19:52:16.687Z,16.30
2018-02-18T19:54:47.040Z,16.50
2018-02-18T19:57:14.533Z,18.97
2018-02-18T19:59:42.035Z,17.40
2018-02-18T20:02:09.524Z,19.57
2018-02-18T20:04:37.007Z,19.67
2018-02-18T20:07:05.263Z,18.57
2018-02-18T20:09:32.837Z,17.70
2018-02-18T20:12:01.076Z,20.23
2018-02-18T20:14:28.556Z,16.77
2018-02-18T20:16:56.055Z,16.20
2018-02-18T20:19:23.577Z,17.03
2018-02-18T20:21:51.058Z,17.73
2018-02-18T20:24:19.300Z,18.97
2018-02-18T20:26:46.787Z,19.30
2018-02-18T20:29:15.062Z,16.57
2018-02-18T20:31:43.304Z,17.40
2018-02-18T20:34:10.813Z,15.50
2018-02-18T20:36:38.275Z,19.67
2018-02-18T20:39:05.752Z,27.90
2018-02-18T20:41:33.231Z,16.20
2018-02-18T20:44:00.712Z,16.23
2018-02-18T20:46:28.178Z,24.80
2018-02-18T20:48:55.655Z,14.57
2018-02-18T20:51:23.893Z,17.20
2018-02-18T20:53:51.375Z,16.40
2018-02-18T20:56:19.616Z,14.57
2018-02-18T20:58:47.104Z,14.30
2018-02-18T21:01:14.577Z,16.00
2018-02-18T21:03:42.827Z,23.87
2018-02-18T21:06:10.295Z,18.43
2018-02-18T21:08:37.776Z,21.70
2018-02-18T21:11:06.016Z,14.23
2018-02-18T21:13:33.519Z,19.27
2018-02-18T21:16:00.995Z,20.53
2018-02-18T21:18:28.512Z,16.33
2018-02-18T21:20:55.981Z,20.33
2018-02-18T21:23:24.235Z,23.90
2018-02-18T21:25:51.712Z,16.97
2018-02-18T21:28:19.954Z,19.87
2018-02-18T21:30:47.432Z,19.63
2018-02-18T21:33:14.904Z,17.50
2018-02-18T21:35:43.151Z,18.80
2018-02-18T21:38:10.631Z,16.80
2018-02-18T21:40:38.869Z,17.00
2018-02-18T21:43:06.446Z,16.93
2018-02-18T21:45:33.919Z,15.83
2018-02-18T21:48:01.393Z,22.23
2018-02-18T21:50:29.638Z,20.70
2018-02-18T21:52:57.114Z,25.63
2018-02-18T21:55:24.594Z,17.50
2018-02-18T21:57:52.073Z,17.77
2018-02-18T22:00:19.584Z,19.03
2018-02-18T22:02:47.316Z,21.00
2018-02-18T22:05:14.793Z,17.80
2018-02-18T22:07:42.258Z,17.50
2018-02-18T22:10:09.732Z,18.63
2018-02-18T22:12:37.970Z,19.83
2018-02-18T22:15:05.451Z,18.77
2018-02-18T22:17:32.923Z,21.40
2018-02-18T22:20:01.170Z,17.80
2018-02-18T22:22:28.670Z,21.43
2018-02-18T22:24:56.126Z,15.80
2018-02-18T22:27:24.366Z,20.97
2018-02-18T22:29:51.884Z,20.80
2018-02-18T22:32:19.365Z,26.03
2018-02-18T22:34:46.852Z,21.40
2018-02-18T22:37:14.318Z,21.40
2018-02-18T22:39:41.814Z,19.43
2018-02-18T22:42:09.294Z,20.15
2018-02-18T22:44:36.767Z,21.20
2018-02-18T22:47:04.243Z,22.80
2018-02-18T22:49:31.711Z,21.23
2018-02-18T22:51:59.968Z,23.43
2018-02-18T22:54:27.456Z,19.20
2018-02-18T22:56:55.697Z,26.20
2018-02-18T22:59:23.159Z,28.83
2018-02-18T23:01:50.630Z,22.77
2018-02-18T23:04:18.120Z,19.67
2018-02-18T23:06:45.597Z,20.27
2018-02-18T23:09:13.070Z,24.60
2018-02-18T23:11:40.548Z,19.57
2018-02-18T23:14:08.042Z,21.87
2018-02-18T23:16:36.302Z,22.90
2018-02-18T23:19:03.796Z,21.10
2018-02-18T23:21:31.272Z,24.20
2018-02-18T23:23:58.749Z,25.50
2018-02-18T23:26:26.227Z,24.17
2018-02-18T23:28:53.716Z,24.87
2018-02-18T23:31:21.960Z,21.57
2018-02-18T23:33:49.435Z,23.60
2018-02-18T23:36:16.917Z,22.00
2018-02-18T23:38:44.406Z,25.70
2018-02-18T23:41:11.871Z,26.07
2018-02-18T23:43:39.714Z,27.50
2018-02-18T23:46:07.187Z,31.10
2018-02-18T23:48:34.671Z,36.90
2018-02-18T23:51:02.141Z,23.20
2018-02-18T23:53:29.610Z,29.07
2018-02-18T23:55:57.855Z,26.20
2018-02-18T23:58:25.336Z,32.43
